createdAt,value
2023-01-11T00:00:49.847Z,95556.91
2023-01-11T00:03:16.268Z,95570.41
2023-01-11T00:05:42.735Z,95570.59
2023-01-11T00:08:12.365Z,95565.34
2023-01-11T00:10:39.179Z,95556.25
2023-01-11T00:13:05.561Z,95566.09
2023-01-11T00:15:32.045Z,95548.78
2023-01-11T00:17:58.400Z,95551.16
2023-01-11T00:20:24.803Z,95551.81
2023-01-11T00:22:51.184Z,95556.84
2023-01-11T00:25:17.575Z,95551.16
2023-01-11T00:27:44.075Z,95553.91
2023-01-11T00:30:10.445Z,95552.81
2023-01-11T00:32:36.897Z,95552.13
2023-01-11T00:35:03.322Z,95558.31
2023-01-11T00:37:29.697Z,95564.66
2023-01-11T00:39:56.077Z,95558.09
2023-01-11T00:42:22.556Z,95548.38
2023-01-11T00:44:49.007Z,95549.16
2023-01-11T00:47:15.420Z,95553.16
2023-01-11T00:49:41.876Z,95552.81
2023-01-11T00:52:08.308Z,95548.66
2023-01-11T00:54:34.698Z,95552.47
2023-01-11T00:57:01.070Z,95535.63
2023-01-11T00:59:27.493Z,95538.09
2023-01-11T01:01:53.881Z,95537.91
2023-01-11T01:04:20.251Z,95543.06
2023-01-11T01:06:46.675Z,95534.78
2023-01-11T01:09:13.073Z,95534.94
2023-01-11T01:11:39.467Z,95530.88
2023-01-11T01:14:05.852Z,95530.00
2023-01-11T01:16:32.316Z,95530.59
2023-01-11T01:18:58.736Z,95531.19
2023-01-11T01:21:25.085Z,95531.28
2023-01-11T01:23:51.473Z,95522.31
2023-01-11T01:26:17.857Z,95512.50
2023-01-11T01:28:44.260Z,95513.66
2023-01-11T01:31:10.676Z,95505.09
2023-01-11T01:33:37.044Z,95502.03
2023-01-11T01:36:03.539Z,95502.47
2023-01-11T01:38:29.921Z,95495.16
2023-01-11T01:40:56.284Z,95488.50
2023-01-11T01:43:22.719Z,95496.84
2023-01-11T01:45:49.118Z,95501.34
2023-01-11T01:48:15.530Z,95501.09
2023-01-11T01:50:42.015Z,95488.72
2023-01-11T01:53:08.376Z,95502.88
2023-01-11T01:55:34.747Z,95496.19
2023-01-11T01:58:01.151Z,95493.47
2023-01-11T02:00:27.562Z,95494.31
2023-01-11T02:02:54.125Z,95503.09
2023-01-11T02:05:20.545Z,95508.28
2023-01-11T02:07:46.936Z,95509.66
2023-01-11T02:10:13.336Z,95518.75
2023-01-11T02:12:39.714Z,95512.38
2023-01-11T02:15:06.159Z,95516.53
2023-01-11T02:17:32.568Z,95518.06
2023-01-11T02:19:58.943Z,95507.44
2023-01-11T02:22:25.323Z,95507.53
2023-01-11T02:24:51.727Z,95498.38
2023-01-11T02:27:18.313Z,95498.38
2023-01-11T02:29:44.791Z,95499.72
2023-01-11T02:32:11.225Z,95493.47
2023-01-11T02:34:37.636Z,95488.63
2023-01-11T02:37:03.977Z,95485.84
2023-01-11T02:39:30.359Z,95481.84
2023-01-11T02:41:56.731Z,95480.94
2023-01-11T02:44:23.106Z,95470.16
2023-01-11T02:46:49.650Z,95464.56
2023-01-11T02:49:16.077Z,95463.81
2023-01-11T02:51:42.521Z,95449.84
2023-01-11T02:54:08.959Z,95448.03
2023-01-11T02:56:35.328Z,95441.19
2023-01-11T02:59:02.779Z,95442.16
2023-01-11T03:01:29.187Z,95444.38
2023-01-11T03:03:55.607Z,95430.47
2023-01-11T03:06:22.043Z,95426.34
2023-01-11T03:08:48.455Z,95427.25
2023-01-11T03:11:14.840Z,95433.19
2023-01-11T03:13:41.208Z,95431.59
2023-01-11T03:16:07.673Z,95434.13
2023-01-11T03:18:34.091Z,95425.41
2023-01-11T03:21:00.451Z,95433.97
2023-01-11T03:23:26.857Z,95429.63
2023-01-11T03:25:53.503Z,95422.81
2023-01-11T03:28:19.940Z,95428.00
2023-01-11T03:30:46.323Z,95435.72
2023-01-11T03:33:12.702Z,95432.56
2023-01-11T03:35:39.062Z,95431.06
2023-01-11T03:38:05.497Z,95431.56
2023-01-11T03:40:31.950Z,95438.09
2023-01-11T03:42:58.562Z,95438.41
2023-01-11T03:45:25.012Z,95431.91
2023-01-11T03:47:51.377Z,95424.44
2023-01-11T03:50:17.788Z,95428.09
2023-01-11T03:52:44.148Z,95425.81
2023-01-11T03:55:10.592Z,95400.13
2023-01-11T03:57:36.955Z,95397.44
2023-01-11T04:00:03.374Z,95384.16
2023-01-11T04:02:29.745Z,95379.06
2023-01-11T04:04:56.156Z,95373.81
2023-01-11T04:07:22.527Z,95372.47
2023-01-11T04:09:48.964Z,95367.31
2023-01-11T04:12:15.350Z,95366.78
2023-01-11T04:14:41.767Z,95371.19
2023-01-11T04:17:08.122Z,95375.34
2023-01-11T04:19:34.630Z,95381.28
2023-01-11T04:22:01.064Z,95382.66
2023-01-11T04:24:27.429Z,95380.94
2023-01-11T04:26:53.854Z,95372.06
2023-01-11T04:29:20.233Z,95374.00
2023-01-11T04:31:46.668Z,95381.38
2023-01-11T04:34:13.097Z,95378.31
2023-01-11T04:36:39.503Z,95371.78
2023-01-11T04:39:05.914Z,95375.84
2023-01-11T04:41:32.302Z,95367.31
2023-01-11T04:43:58.887Z,95366.72
2023-01-11T04:46:25.279Z,95372.22
2023-01-11T04:48:51.858Z,95372.16
2023-01-11T04:51:18.286Z,95379.69
2023-01-11T04:53:44.649Z,95380.84
2023-01-11T04:56:11.120Z,95380.69
2023-01-11T04:58:38.265Z,95389.81
2023-01-11T05:01:04.790Z,95377.13
2023-01-11T05:03:31.223Z,95375.53
2023-01-11T05:05:57.612Z,95379.16
2023-01-11T05:08:24.107Z,95378.41
2023-01-11T05:10:50.566Z,95377.47
2023-01-11T05:13:16.965Z,95380.84
2023-01-11T05:15:43.409Z,95378.38
2023-01-11T05:18:09.777Z,95390.41
2023-01-11T05:20:36.162Z,95386.75
2023-01-11T05:23:02.570Z,95379.34
2023-01-11T05:25:28.986Z,95376.56
2023-01-11T05:27:55.380Z,95373.81
2023-01-11T05:30:21.791Z,95375.50
2023-01-11T05:32:48.176Z,95378.69
2023-01-11T05:35:14.554Z,95375.72
2023-01-11T05:37:40.929Z,95378.69
2023-01-11T05:40:07.319Z,95367.69
2023-01-11T05:42:33.776Z,95371.50
2023-01-11T05:45:00.243Z,95360.22
2023-01-11T05:47:26.633Z,95353.59
2023-01-11T05:49:53.038Z,95362.66
2023-01-11T05:52:19.430Z,95364.94
2023-01-11T05:54:45.844Z,95363.06
2023-01-11T05:57:12.299Z,95353.38
2023-01-11T05:59:38.715Z,95342.41
2023-01-11T06:02:05.155Z,95340.75
2023-01-11T06:04:31.648Z,95352.22
2023-01-11T06:06:58.070Z,95346.53
2023-01-11T06:09:25.520Z,95352.28
2023-01-11T06:11:51.948Z,95361.00
2023-01-11T06:14:18.347Z,95361.13
2023-01-11T06:16:44.882Z,95353.72
2023-01-11T06:19:11.367Z,95361.88
2023-01-11T06:21:37.928Z,95360.38
2023-01-11T06:24:04.298Z,95358.09
2023-01-11T06:26:30.697Z,95350.47
2023-01-11T06:28:57.084Z,95359.41
2023-01-11T06:31:23.545Z,95361.53
2023-01-11T06:33:50.114Z,95362.38
2023-01-11T06:36:16.500Z,95363.06
2023-01-11T06:38:42.877Z,95362.28
2023-01-11T06:41:09.353Z,95365.94
2023-01-11T06:43:35.795Z,95362.78
2023-01-11T06:46:02.203Z,95363.31
2023-01-11T06:48:28.592Z,95360.44
2023-01-11T06:50:55.015Z,95365.84
2023-01-11T06:53:21.357Z,95363.56
2023-01-11T06:55:47.730Z,95363.81
2023-01-11T06:58:14.261Z,95362.50
2023-01-11T07:00:40.692Z,95359.81
2023-01-11T07:03:07.254Z,95365.56
2023-01-11T07:05:33.704Z,95373.56
2023-01-11T07:08:00.194Z,95377.19
2023-01-11T07:10:26.586Z,95378.56
2023-01-11T07:12:52.971Z,95374.91
2023-01-11T07:15:19.357Z,95372.25
2023-01-11T07:17:45.709Z,95371.91
2023-01-11T07:20:12.154Z,95359.13
2023-01-11T07:22:38.545Z,95359.41
2023-01-11T07:25:05.213Z,95356.69
2023-01-11T07:27:31.620Z,95362.38
2023-01-11T07:29:58.097Z,95358.34
2023-01-11T07:32:24.548Z,95355.31
2023-01-11T07:34:50.893Z,95351.66
2023-01-11T07:37:29.201Z,95359.41
2023-01-11T07:39:55.883Z,95359.81
2023-01-11T07:42:22.253Z,95365.47
2023-01-11T07:44:48.643Z,95373.28
2023-01-11T07:47:15.011Z,95357.59
2023-01-11T07:49:41.486Z,95359.69
2023-01-11T07:52:07.890Z,95361.06
2023-01-11T07:54:34.355Z,95354.63
2023-01-11T07:57:00.903Z,95357.41
2023-01-11T07:59:27.319Z,95345.84
2023-01-11T08:01:53.696Z,95351.59
2023-01-11T08:04:20.081Z,95349.78
2023-01-11T08:06:46.466Z,95347.72
2023-01-11T08:09:12.861Z,95350.53
2023-01-11T08:11:39.243Z,95345.84
2023-01-11T08:14:05.621Z,95347.31
2023-01-11T08:16:31.998Z,95352.69
2023-01-11T08:18:58.445Z,95371.78
2023-01-11T08:21:24.814Z,95376.06
2023-01-11T08:23:51.169Z,95384.16
2023-01-11T08:26:17.535Z,95384.63
2023-01-11T08:28:44.037Z,95391.09
2023-01-11T08:31:10.476Z,95384.44
2023-01-11T08:33:36.894Z,95384.59
2023-01-11T08:36:05.257Z,95388.28
2023-01-11T08:38:31.628Z,95385.94
2023-01-11T08:40:58.030Z,95384.09
2023-01-11T08:43:24.418Z,95379.03
2023-01-11T08:45:50.799Z,95367.00
2023-01-11T08:48:17.181Z,95370.13
2023-01-11T08:50:43.574Z,95378.81
2023-01-11T08:53:12.163Z,95377.09
2023-01-11T08:55:38.631Z,95373.56
2023-01-11T08:58:05.059Z,95380.34
2023-01-11T09:00:31.464Z,95375.94
2023-01-11T09:02:58.077Z,95376.47
2023-01-11T09:05:24.878Z,95375.38
2023-01-11T09:07:51.245Z,95375.03
2023-01-11T09:10:17.628Z,95369.56
2023-01-11T09:12:43.997Z,95364.03
2023-01-11T09:15:10.447Z,95367.25
2023-01-11T09:17:36.831Z,95379.03
2023-01-11T09:20:03.241Z,95374.47
2023-01-11T09:22:30.634Z,95373.47
2023-01-11T09:24:57.016Z,95383.47
2023-01-11T09:27:23.400Z,95388.84
2023-01-11T09:29:49.822Z,95400.47
2023-01-11T09:32:16.434Z,95399.38
2023-01-11T09:34:42.806Z,95392.81
2023-01-11T09:37:09.167Z,95382.00
2023-01-11T09:39:35.548Z,95381.25
2023-01-11T09:42:01.960Z,95392.88
2023-01-11T09:44:28.362Z,95394.09
2023-01-11T09:46:54.957Z,95400.19
2023-01-11T09:49:21.417Z,95396.84
2023-01-11T09:51:47.884Z,95395.09
2023-01-11T09:54:14.345Z,95393.16
2023-01-11T09:56:40.792Z,95391.59
2023-01-11T09:59:07.194Z,95394.09
2023-01-11T10:01:33.554Z,95404.50
2023-01-11T10:03:59.938Z,95401.75
2023-01-11T10:06:26.505Z,95400.81
2023-01-11T10:18:32.762Z,95402.69
2023-01-11T10:18:38.883Z,95398.44
2023-01-11T10:19:58.612Z,95389.59
2023-01-11T10:22:25.121Z,95390.88
2023-01-11T10:24:51.504Z,95384.28
2023-01-11T10:27:18.223Z,95379.22
2023-01-11T10:29:44.711Z,95377.72
2023-01-11T10:32:11.136Z,95370.91
2023-01-11T10:34:37.517Z,95375.75
2023-01-11T10:37:03.910Z,95376.03
2023-01-11T10:39:30.316Z,95365.69
2023-01-11T10:41:56.754Z,95369.41
2023-01-11T10:44:23.157Z,95364.97
2023-01-11T10:46:49.525Z,95368.47
2023-01-11T10:49:15.922Z,95375.59
2023-01-11T10:51:42.295Z,95373.03
2023-01-11T10:54:09.394Z,95377.16
2023-01-11T10:56:35.987Z,95362.84
2023-01-11T10:59:09.406Z,95354.97
2023-01-11T11:01:35.853Z,95359.69
2023-01-11T11:04:02.354Z,95363.41
2023-01-11T11:06:29.431Z,95356.38
2023-01-11T11:08:55.827Z,95364.38
2023-01-11T11:11:22.280Z,95357.53
2023-01-11T11:13:48.664Z,95353.84
2023-01-11T11:16:15.164Z,95363.06
2023-01-11T11:18:41.546Z,95353.47
2023-01-11T11:21:07.919Z,95362.78
2023-01-11T11:23:34.379Z,95361.19
2023-01-11T11:26:00.781Z,95356.97
2023-01-11T11:28:27.346Z,95357.31
2023-01-11T11:30:53.785Z,95353.25
2023-01-11T11:33:20.221Z,95355.72
2023-01-11T11:35:46.635Z,95358.63
2023-01-11T11:38:13.025Z,95365.13
2023-01-11T11:40:39.456Z,95362.91
2023-01-11T11:43:05.865Z,95363.56
2023-01-11T11:45:32.281Z,95375.97
2023-01-11T11:47:58.731Z,95369.38
2023-01-11T11:50:43.247Z,95366.53
2023-01-11T11:53:10.452Z,95375.81
2023-01-11T11:55:36.895Z,95364.91
2023-01-11T11:58:03.253Z,95379.16
2023-01-11T12:00:29.668Z,95364.00
2023-01-11T12:02:56.062Z,95353.31
2023-01-11T12:05:24.840Z,95359.03
2023-01-11T12:07:55.282Z,95360.34
2023-01-11T12:10:21.936Z,95366.22
2023-01-11T12:12:48.368Z,95353.91
2023-01-11T12:15:14.765Z,95358.56
2023-01-11T12:17:41.153Z,95348.41
2023-01-11T12:20:07.575Z,95351.88
2023-01-11T12:22:36.062Z,95361.81
2023-01-11T12:25:02.513Z,95351.16
2023-01-11T12:27:28.891Z,95353.31
2023-01-11T12:29:55.513Z,95343.28
2023-01-11T12:32:21.883Z,95357.16
2023-01-11T12:34:48.357Z,95350.66
2023-01-11T12:37:14.717Z,95351.00
2023-01-11T12:39:41.196Z,95350.09
2023-01-11T12:42:07.575Z,95347.78
2023-01-11T12:44:33.968Z,95361.50
2023-01-11T12:47:00.345Z,95356.22
2023-01-11T12:49:26.875Z,95353.94
2023-01-11T12:51:53.276Z,95350.34
2023-01-11T12:54:19.657Z,95359.06
2023-01-11T12:56:46.055Z,95363.00
2023-01-11T12:59:12.447Z,95368.94
2023-01-11T13:01:38.914Z,95350.81
2023-01-11T13:04:05.288Z,95358.50
2023-01-11T13:06:31.713Z,95352.69
2023-01-11T13:08:58.123Z,95360.81
2023-01-11T13:11:24.616Z,95362.34
2023-01-11T13:13:51.008Z,95360.28
2023-01-11T13:16:17.451Z,95367.06
2023-01-11T13:18:43.849Z,95362.78
2023-01-11T13:21:10.200Z,95367.75
2023-01-11T13:23:36.634Z,95363.31
2023-01-11T13:26:03.008Z,95360.28
2023-01-11T13:28:29.384Z,95376.06
2023-01-11T13:30:55.872Z,95376.81
2023-01-11T13:33:22.267Z,95370.25
2023-01-11T13:35:48.671Z,95370.59
2023-01-11T13:38:15.154Z,95370.59
2023-01-11T13:40:41.629Z,95372.53
2023-01-11T13:43:08.008Z,95379.72
2023-01-11T13:45:34.403Z,95379.09
2023-01-11T13:48:00.770Z,95372.94
2023-01-11T13:50:27.158Z,95384.09
2023-01-11T13:52:53.566Z,95381.31
2023-01-11T13:55:25.468Z,95378.75
2023-01-11T13:57:52.695Z,95378.28
2023-01-11T14:00:19.122Z,95374.00
2023-01-11T14:02:45.532Z,95378.75
2023-01-11T14:05:11.920Z,95371.91
2023-01-11T14:07:38.320Z,95382.44
2023-01-11T14:10:04.676Z,95387.53
2023-01-11T14:12:31.068Z,95390.72
2023-01-11T14:14:57.452Z,95397.78
2023-01-11T14:17:23.827Z,95399.69
2023-01-11T14:19:50.228Z,95393.47
2023-01-11T14:22:16.603Z,95399.56
2023-01-11T14:24:42.976Z,95399.84
2023-01-11T14:27:09.424Z,95408.84
2023-01-11T14:29:35.931Z,95422.63
2023-01-11T14:32:02.297Z,95426.72
2023-01-11T14:34:28.731Z,95422.75
2023-01-11T14:36:55.101Z,95423.94
2023-01-11T14:39:21.456Z,95438.63
2023-01-11T14:41:48.000Z,95440.16
2023-01-11T14:44:14.420Z,95453.59
2023-01-11T14:46:40.838Z,95460.91
2023-01-11T14:49:08.462Z,95468.53
2023-01-11T14:51:36.318Z,95464.34
2023-01-11T14:54:02.759Z,95477.59
2023-01-11T14:56:29.135Z,95480.88
2023-01-11T14:58:55.568Z,95485.06
2023-01-11T15:01:21.991Z,95484.78
2023-01-11T15:03:48.419Z,95488.72
2023-01-11T15:06:14.844Z,95492.81
2023-01-11T15:08:41.297Z,95497.63
2023-01-11T15:11:07.711Z,95515.69
2023-01-11T15:13:34.127Z,95508.16
2023-01-11T15:16:00.526Z,95513.41
2023-01-11T15:18:26.929Z,95524.06
2023-01-11T15:20:53.367Z,95524.06
2023-01-11T15:23:19.755Z,95538.81
2023-01-11T15:25:46.130Z,95528.38
2023-01-11T15:28:12.574Z,95540.81
2023-01-11T15:30:38.994Z,95541.59
2023-01-11T15:33:05.397Z,95561.53
2023-01-11T15:35:31.920Z,95557.31
2023-01-11T15:37:58.353Z,95555.78
2023-01-11T15:40:24.778Z,95542.28
2023-01-11T15:42:51.199Z,95533.63
2023-01-11T15:45:17.559Z,95544.88
2023-01-11T15:47:43.941Z,95540.31
2023-01-11T15:50:10.360Z,95544.19
2023-01-11T15:52:36.796Z,95555.63
2023-01-11T15:55:03.195Z,95547.13
2023-01-11T15:57:30.978Z,95551.63
2023-01-11T15:59:57.428Z,95555.97
2023-01-11T16:02:23.807Z,95557.72
2023-01-11T16:04:50.198Z,95555.66
2023-01-11T16:07:16.605Z,95564.72
2023-01-11T16:09:43.004Z,95565.06
2023-01-11T16:12:09.388Z,95573.00
2023-01-11T16:14:35.775Z,95569.63
2023-01-11T16:17:02.180Z,95566.38
2023-01-11T16:19:28.572Z,95569.75
2023-01-11T16:21:54.927Z,95574.41
2023-01-11T16:24:21.300Z,95593.94
2023-01-11T16:26:47.819Z,95592.94
2023-01-11T16:29:14.316Z,95592.00
2023-01-11T16:31:40.748Z,95602.59
2023-01-11T16:34:07.156Z,95603.56
2023-01-11T16:36:33.610Z,95591.84
2023-01-11T16:38:59.958Z,95588.78
2023-01-11T16:41:26.318Z,95596.34
2023-01-11T16:43:52.693Z,95595.44
2023-01-11T16:46:19.095Z,95600.03
2023-01-11T16:48:45.478Z,95608.88
2023-01-11T16:51:11.857Z,95620.97
2023-01-11T16:53:38.301Z,95634.28
2023-01-11T16:56:04.709Z,95631.84
2023-01-11T16:58:31.087Z,95627.25
2023-01-11T17:00:57.523Z,95622.00
2023-01-11T17:03:23.956Z,95620.91
2023-01-11T17:05:50.337Z,95640.84
2023-01-11T17:08:16.759Z,95644.88
2023-01-11T17:10:43.123Z,95630.63
2023-01-11T17:13:09.493Z,95624.75
2023-01-11T17:15:35.886Z,95623.28
2023-01-11T17:18:02.258Z,95637.00
2023-01-11T17:20:28.662Z,95636.03
2023-01-11T17:22:55.048Z,95640.69
2023-01-11T17:25:21.554Z,95643.59
2023-01-11T17:27:47.933Z,95632.91
2023-01-11T17:30:14.346Z,95636.84
2023-01-11T17:32:40.771Z,95640.06
2023-01-11T17:35:07.266Z,95641.56
2023-01-11T17:37:33.676Z,95649.88
2023-01-11T17:40:00.126Z,95654.59
2023-01-11T17:42:26.596Z,95663.25
2023-01-11T17:44:52.959Z,95667.28
2023-01-11T17:47:19.353Z,95670.38
2023-01-11T17:49:46.087Z,95686.59
2023-01-11T17:52:12.478Z,95675.47
2023-01-11T17:54:39.189Z,95670.38
2023-01-11T17:57:05.573Z,95668.00
2023-01-11T17:59:31.956Z,95662.06
2023-01-11T18:01:58.388Z,95676.13
2023-01-11T18:04:24.761Z,95663.31
2023-01-11T18:06:51.170Z,95665.59
2023-01-11T18:09:17.615Z,95671.63
2023-01-11T18:11:46.030Z,95668.28
2023-01-11T18:14:12.504Z,95664.66
2023-01-11T18:16:38.913Z,95665.00
2023-01-11T18:19:05.410Z,95678.13
2023-01-11T18:21:31.786Z,95684.91
2023-01-11T18:23:58.165Z,95689.91
2023-01-11T18:26:24.625Z,95689.16
2023-01-11T18:28:51.296Z,95698.09
2023-01-11T18:31:17.773Z,95700.31
2023-01-11T18:33:44.248Z,95698.78
2023-01-11T18:36:10.644Z,95695.13
2023-01-11T18:38:37.095Z,95694.44
2023-01-11T18:41:03.495Z,95701.63
2023-01-11T18:43:30.008Z,95703.88
2023-01-11T18:45:56.508Z,95703.69
2023-01-11T18:48:22.872Z,95715.41
2023-01-11T18:50:49.234Z,95718.53
2023-01-11T18:53:15.638Z,95716.81
2023-01-11T18:55:42.665Z,95708.16
2023-01-11T18:58:09.064Z,95720.22
2023-01-11T19:00:38.887Z,95732.25
2023-01-11T19:03:05.258Z,95748.81
2023-01-11T19:05:31.644Z,95746.78
2023-01-11T19:07:58.096Z,95747.81
2023-01-11T19:10:24.468Z,95741.78
2023-01-11T19:12:50.893Z,95745.19
2023-01-11T19:15:17.315Z,95737.88
2023-01-11T19:17:43.764Z,95743.50
2023-01-11T19:20:10.241Z,95751.63
2023-01-11T19:22:36.635Z,95761.81
2023-01-11T19:25:03.000Z,95759.78
2023-01-11T19:27:29.442Z,95755.03
2023-01-11T19:29:58.542Z,95754.78
2023-01-11T19:32:24.927Z,95749.69
2023-01-11T19:34:51.612Z,95751.72
2023-01-11T19:37:18.025Z,95749.94
2023-01-11T19:39:44.413Z,95734.84
2023-01-11T19:42:11.007Z,95728.97
2023-01-11T19:44:37.458Z,95731.25
2023-01-11T19:47:11.237Z,95732.38
2023-01-11T19:49:38.257Z,95733.31
2023-01-11T19:52:04.771Z,95729.81
2023-01-11T19:54:31.182Z,95734.00
2023-01-11T19:56:57.611Z,95733.22
2023-01-11T19:59:24.004Z,95754.78
2023-01-11T20:01:50.484Z,95750.03
2023-01-11T20:04:16.962Z,95755.00
2023-01-11T20:06:43.324Z,95758.13
2023-01-11T20:09:09.761Z,95763.78
2023-01-11T20:11:36.118Z,95761.78
2023-01-11T20:14:02.484Z,95767.16
2023-01-11T20:16:28.883Z,95760.63
2023-01-11T20:18:55.248Z,95756.47
2023-01-11T20:21:21.624Z,95757.66
2023-01-11T20:23:47.990Z,95760.03
2023-01-11T20:26:14.437Z,95758.75
2023-01-11T20:28:40.805Z,95767.84
2023-01-11T20:31:07.241Z,95760.72
2023-01-11T20:33:33.807Z,95763.50
2023-01-11T20:36:00.240Z,95758.25
2023-01-11T20:38:26.642Z,95771.81
2023-01-11T20:40:53.344Z,95777.44
2023-01-11T20:43:19.753Z,95783.41
2023-01-11T20:45:48.696Z,95786.06
2023-01-11T20:48:15.080Z,95787.75
2023-01-11T20:50:41.463Z,95779.28
2023-01-11T20:53:07.868Z,95788.53
2023-01-11T20:55:34.270Z,95788.28
2023-01-11T20:58:00.657Z,95788.88
2023-01-11T21:00:28.755Z,95788.81
2023-01-11T21:02:55.235Z,95780.47
2023-01-11T21:05:21.718Z,95786.66
2023-01-11T21:07:48.361Z,95789.63
2023-01-11T21:10:14.858Z,95789.63
2023-01-11T21:12:41.254Z,95794.97
2023-01-11T21:15:07.635Z,95793.94
2023-01-11T21:17:34.136Z,95807.28
2023-01-11T21:20:00.515Z,95814.91
2023-01-11T21:22:26.888Z,95804.91
2023-01-11T21:24:53.252Z,95801.16
2023-01-11T21:27:19.718Z,95817.53
2023-01-11T21:29:47.139Z,95816.69
2023-01-11T21:32:16.298Z,95821.53
2023-01-11T21:34:42.765Z,95820.34
2023-01-11T21:37:09.175Z,95830.75
2023-01-11T21:39:35.572Z,95837.13
2023-01-11T21:42:01.973Z,95842.63
2023-01-11T21:44:28.399Z,95838.00
2023-01-11T21:46:54.988Z,95824.50
2023-01-11T21:49:21.339Z,95825.59
2023-01-11T21:51:47.776Z,95822.97
2023-01-11T21:54:14.209Z,95832.22
2023-01-11T21:56:40.575Z,95835.34
2023-01-11T21:59:07.186Z,95845.47
2023-01-11T22:01:33.755Z,95839.22
2023-01-11T22:04:00.198Z,95847.47
2023-01-11T22:06:26.610Z,95848.09
2023-01-11T22:08:53.176Z,95852.72
2023-01-11T22:11:19.613Z,95844.56
2023-01-11T22:13:46.017Z,95833.22
2023-01-11T22:16:12.462Z,95835.97
2023-01-11T22:18:38.890Z,95837.41
2023-01-11T22:21:05.272Z,95838.34
2023-01-11T22:23:31.646Z,95834.84
2023-01-11T22:25:58.092Z,95839.53
2023-01-11T22:28:24.850Z,95839.72
2023-01-11T22:30:51.252Z,95839.22
2023-01-11T22:33:17.621Z,95844.41
2023-01-11T22:35:44.181Z,95836.53
2023-01-11T22:38:10.544Z,95834.72
2023-01-11T22:40:36.942Z,95828.47
2023-01-11T22:43:03.328Z,95832.81
2023-01-11T22:45:29.748Z,95837.00
2023-01-11T22:47:56.163Z,95836.25
2023-01-11T22:50:22.542Z,95844.81
2023-01-11T22:52:48.982Z,95858.31
2023-01-11T22:55:15.374Z,95854.31
2023-01-11T22:57:41.736Z,95863.69
2023-01-11T23:00:08.287Z,95852.72
2023-01-11T23:02:34.784Z,95860.91
2023-01-11T23:05:01.185Z,95852.91
2023-01-11T23:07:27.544Z,95857.88
2023-01-11T23:09:53.958Z,95871.22
2023-01-11T23:12:20.331Z,95872.44
2023-01-11T23:14:46.710Z,95878.91
2023-01-11T23:17:13.119Z,95871.25
2023-01-11T23:19:39.502Z,95872.34
2023-01-11T23:22:05.892Z,95876.47
2023-01-11T23:24:32.333Z,95892.63
2023-01-11T23:26:58.819Z,95889.00
2023-01-11T23:29:25.237Z,95889.56
2023-01-11T23:31:51.746Z,95897.59
2023-01-11T23:34:18.172Z,95895.94
2023-01-11T23:36:45.543Z,95888.06
2023-01-11T23:39:11.964Z,95880.63
2023-01-11T23:41:38.346Z,95867.19
2023-01-11T23:44:04.751Z,95850.31
2023-01-11T23:46:31.166Z,95852.19
2023-01-11T23:48:57.606Z,95852.41
2023-01-11T23:51:24.041Z,95847.84
2023-01-11T23:53:50.562Z,95844.44
2023-01-11T23:56:17.099Z,95853.97
2023-01-11T23:58:43.484Z,95847.09
